Time;durP1;ratioP1;P1;durP2;ratioP2;P2;SDS_P1;SDS_P2;PMS_P1;PMS_P2;Temp;Humidity;BMP_temperature;BMP_pressure;BME280_temperature;BME280_humidity;BME280_pressure;Samples;Min_cycle;Max_cycle;Signal;HPM_P1;HPM_P2
2022/01/23 00:02:13;;;;;;;;;;;9.00;91.00;;;;;;4959983;28;19906;-79
2022/01/23 00:04:39;;;;;;;;;;;9.00;91.00;;;;;;4960385;28;19938;-79
2022/01/23 00:07:08;;;;;;;;;;;9.00;91.00;;;;;;4960169;28;19937;-79
2022/01/23 00:09:34;;;;;;;;;;;9.00;91.00;;;;;;4960163;28;20218;-79
2022/01/23 00:12:04;;;;;;;;;;;9.00;91.00;;;;;;4977115;28;19980;-77
2022/01/23 00:17:23;;;;;;;;;;;9.00;91.00;;;;;;4977671;28;19912;-80
2022/01/23 00:19:52;;;;;;;;;;;9.00;91.00;;;;;;4960028;28;19906;-79
2022/01/23 00:22:19;;;;;;;;;;;9.00;91.00;;;;;;4959714;28;19909;-78
2022/01/23 00:30:26;;;;;;;;;;;9.00;91.00;;;;;;4977414;28;19952;-79
2022/01/23 00:32:51;;;;;;;;;;;9.00;91.00;;;;;;4959552;28;19917;-79
2022/01/23 00:35:17;;;;;;;;;;;9.00;91.00;;;;;;4959667;28;19906;-79
2022/01/23 00:37:42;;;;;;;;;;;8.90;91.00;;;;;;4975772;28;19906;-79
2022/01/23 00:40:08;;;;;;;;;;;9.00;91.00;;;;;;4959584;28;20010;-79
2022/01/23 00:42:35;;;;;;;;;;;9.00;91.00;;;;;;4959095;28;19945;-79
2022/01/23 00:45:25;;;;;;;;;;;8.90;91.00;;;;;;4976884;28;19970;-76
2022/01/23 00:47:54;;;;;;;;;;;9.00;91.00;;;;;;4976412;28;20001;-79
2022/01/23 00:50:19;;;;;;;;;;;9.00;91.00;;;;;;4959461;28;19945;-79
2022/01/23 00:52:45;;;;;;;;;;;9.00;91.00;;;;;;4976468;28;20285;-79
2022/01/23 00:55:10;;;;;;;;;;;8.90;91.00;;;;;;4976680;28;19906;-79
2022/01/23 00:57:36;;;;;;;;;;;9.00;91.00;;;;;;4959571;28;19906;-79
2022/01/23 01:00:03;;;;;;;;;;;9.00;91.00;;;;;;4959163;28;19948;-78
2022/01/23 01:02:28;;;;;;;;;;;9.00;91.00;;;;;;4958791;28;19960;-79
2022/01/23 01:04:54;;;;;;;;;;;9.00;91.00;;;;;;4958373;28;19906;-80
2022/01/23 01:07:19;;;;;;;;;;;9.00;91.00;;;;;;4975231;28;19913;-79
2022/01/23 01:09:49;;;;;;;;;;;9.00;91.00;;;;;;4959064;28;19913;-80
2022/01/23 01:12:20;;;;;;;;;;;9.00;91.00;;;;;;4976033;28;20005;-79
2022/01/23 01:30:57;;;;;;;;;;;9.00;91.00;;;;;;4975850;28;19956;-79
2022/01/23 01:36:00;;;;;;;;;;;9.00;91.00;;;;;;4975843;28;19953;-79
2022/01/23 01:38:25;;;;;;;;;;;9.00;91.00;;;;;;4958588;28;19944;-79
2022/01/23 01:40:51;;;;;;;;;;;9.00;91.00;;;;;;4958148;28;19953;-79
2022/01/23 01:43:17;;;;;;;;;;;9.00;91.00;;;;;;4954409;28;19914;-80
2022/01/23 01:45:43;;;;;;;;;;;9.00;91.00;;;;;;4939187;29;19913;-79
2022/01/23 01:48:10;;;;;;;;;;;9.00;91.00;;;;;;4939152;29;19914;-79
2022/01/23 01:50:42;;;;;;;;;;;9.00;91.00;;;;;;4938993;29;19907;-78
2022/01/23 01:53:10;;;;;;;;;;;9.00;91.00;;;;;;4939144;29;19911;-80
2022/01/23 01:55:41;;;;;;;;;;;9.00;91.00;;;;;;4955039;29;20258;-80
2022/01/23 01:58:13;;;;;;;;;;;9.00;91.00;;;;;;4955033;29;20357;-79
2022/01/23 02:00:52;;;;;;;;;;;9.00;91.00;;;;;;4954805;29;20389;-77
2022/01/23 02:08:17;;;;;;;;;;;9.00;91.00;;;;;;4939016;29;19907;-79
2022/01/23 02:08:52;;;;;;;;;;;9.00;91.00;;;;;;4956221;29;19953;-79
2022/01/23 02:11:24;;;;;;;;;;;9.00;91.00;;;;;;4955820;29;19907;-79
2022/01/23 02:14:09;;;;;;;;;;;9.00;91.00;;;;;;4938557;29;19915;-79
2022/01/23 02:25:14;;;;;;;;;;;9.00;91.00;;;;;;4955970;29;19986;-79
2022/01/23 02:52:43;;;;;;;;;;;9.00;91.00;;;;;;4955361;28;20363;-80
2022/01/23 02:55:13;;;;;;;;;;;9.00;91.00;;;;;;4955059;29;20064;-81
2022/01/23 03:00:13;;;;;;;;;;;9.00;91.00;;;;;;4955207;29;19907;-79
2022/01/23 03:02:51;;;;;;;;;;;9.00;91.20;;;;;;4953642;28;19989;-79
2022/01/23 03:08:01;;;;;;;;;;;9.00;91.10;;;;;;4955438;29;19911;-79
2022/01/23 03:10:32;;;;;;;;;;;9.00;91.00;;;;;;4937833;29;19942;-78
2022/01/23 03:26:38;;;;;;;;;;;9.00;91.10;;;;;;4954843;29;19922;-80
2022/01/23 03:29:25;;;;;;;;;;;9.00;91.10;;;;;;4937615;29;20301;-79
2022/01/23 03:34:16;;;;;;;;;;;9.00;91.10;;;;;;4954376;28;19911;-77
2022/01/23 03:36:42;;;;;;;;;;;9.00;91.00;;;;;;4951788;28;19906;-80
2022/01/23 03:39:08;;;;;;;;;;;9.00;91.00;;;;;;4973986;28;19913;-80
2022/01/23 03:41:37;;;;;;;;;;;9.00;91.00;;;;;;4956415;28;19990;-80
2022/01/23 03:44:05;;;;;;;;;;;9.00;91.00;;;;;;4973857;28;19918;-80
2022/01/23 03:46:46;;;;;;;;;;;9.00;91.00;;;;;;4956674;28;19985;-79
2022/01/23 03:49:48;;;;;;;;;;;9.00;91.00;;;;;;4973979;28;20325;-78
2022/01/23 03:52:07;;;;;;;;;;;9.00;91.10;;;;;;4970573;28;19921;-78
2022/01/23 03:54:33;;;;;;;;;;;9.00;91.10;;;;;;4956661;28;20340;-80
2022/01/23 03:56:59;;;;;;;;;;;9.00;91.10;;;;;;4972625;28;19913;-80
2022/01/23 03:59:25;;;;;;;;;;;9.00;91.00;;;;;;4956557;28;19929;-80
2022/01/23 04:01:50;;;;;;;;;;;9.00;91.10;;;;;;4956271;28;19921;-79
2022/01/23 04:07:00;;;;;;;;;;;9.00;91.10;;;;;;4974251;28;19913;-79
2022/01/23 04:09:25;;;;;;;;;;;9.00;91.10;;;;;;4956353;28;19906;-79
2022/01/23 04:11:51;;;;;;;;;;;9.00;91.10;;;;;;4972239;28;20392;-78
2022/01/23 04:14:19;;;;;;;;;;;9.00;91.10;;;;;;4956385;28;19910;-80
2022/01/23 04:17:20;;;;;;;;;;;9.00;91.00;;;;;;4956157;28;19929;-79
2022/01/23 04:20:10;;;;;;;;;;;9.00;91.10;;;;;;4973438;28;19943;-79
2022/01/23 04:59:34;;;;;;;;;;;9.00;91.00;;;;;;4976780;28;20281;-79
2022/01/23 05:01:24;;;;;;;;;;;9.00;91.00;;;;;;4976487;28;19976;-80
2022/01/23 05:04:11;;;;;;;;;;;9.00;91.00;;;;;;4976660;28;19934;-79
2022/01/23 05:06:57;;;;;;;;;;;9.00;91.10;;;;;;4959230;28;20328;-79
2022/01/23 05:09:23;;;;;;;;;;;9.00;91.00;;;;;;4959174;28;19934;-79
2022/01/23 05:11:51;;;;;;;;;;;9.00;91.10;;;;;;4958643;28;20348;-78
2022/01/23 05:14:26;;;;;;;;;;;9.00;91.00;;;;;;4959042;28;20362;-80
2022/01/23 05:16:52;;;;;;;;;;;9.00;91.30;;;;;;4959090;28;19957;-79
2022/01/23 05:19:17;;;;;;;;;;;9.00;91.00;;;;;;4976182;28;19906;-80
2022/01/23 05:24:18;;;;;;;;;;;9.00;91.30;;;;;;4976402;28;19910;-79
2022/01/23 05:26:45;;;;;;;;;;;9.00;91.00;;;;;;4958832;28;19906;-79
2022/01/23 05:29:11;;;;;;;;;;;9.00;91.00;;;;;;4958781;28;20280;-79
2022/01/23 05:31:37;;;;;;;;;;;9.00;91.00;;;;;;4958545;28;20480;-79
2022/01/23 05:34:03;;;;;;;;;;;9.00;91.00;;;;;;4958431;28;19997;-79
2022/01/23 05:36:28;;;;;;;;;;;9.00;91.10;;;;;;4956501;28;19928;-79
2022/01/23 05:38:53;;;;;;;;;;;9.00;91.00;;;;;;4975777;28;19938;-79
2022/01/23 05:41:19;;;;;;;;;;;9.00;91.00;;;;;;4958390;28;19913;-79
2022/01/23 05:43:45;;;;;;;;;;;9.00;91.00;;;;;;5017350;23;20449;-79
2022/01/23 05:46:10;;;;;;;;;;;9.60;91.20;;;;;;4958029;28;19907;-78
2022/01/23 05:48:36;;;;;;;;;;;9.00;91.00;;;;;;4975889;28;19913;-78
2022/01/23 05:51:01;;;;;;;;;;;9.00;91.00;;;;;;4957946;28;20002;-78
2022/01/23 05:53:27;;;;;;;;;;;9.00;91.00;;;;;;4958079;28;19910;-78
2022/01/23 05:55:52;;;;;;;;;;;9.00;91.00;;;;;;4957849;28;19906;-78
2022/01/23 05:58:18;;;;;;;;;;;9.00;91.00;;;;;;4958146;28;19906;-78
2022/01/23 06:00:43;;;;;;;;;;;9.10;91.00;;;;;;4975586;28;20099;-78
2022/01/23 06:03:09;;;;;;;;;;;9.00;91.00;;;;;;4975689;28;19922;-78
2022/01/23 06:05:34;;;;;;;;;;;9.00;91.00;;;;;;4958050;28;19945;-77
2022/01/23 06:07:59;;;;;;;;;;;9.10;91.00;;;;;;4974986;28;19910;-78
2022/01/23 06:10:27;;;;;;;;;;;9.00;91.00;;;;;;4958014;28;19910;-78
2022/01/23 06:12:53;;;;;;;;;;;9.00;91.10;;;;;;4957521;28;19906;-78
2022/01/23 06:15:19;;;;;;;;;;;9.10;91.00;;;;;;4957872;28;19913;-77
2022/01/23 06:17:44;;;;;;;;;;;9.00;91.00;;;;;;4975234;28;19917;-78
2022/01/23 06:20:12;;;;;;;;;;;9.10;91.10;;;;;;4975177;28;19921;-77
2022/01/23 06:22:37;;;;;;;;;;;9.00;91.00;;;;;;4974847;28;19906;-77
2022/01/23 06:25:05;;;;;;;;;;;9.00;91.00;;;;;;4975014;28;20409;-77
2022/01/23 06:27:31;;;;;;;;;;;9.00;91.00;;;;;;4974979;28;19968;-78
2022/01/23 06:29:57;;;;;;;;;;;9.10;91.00;;;;;;4957942;28;19914;-77
2022/01/23 06:32:22;;;;;;;;;;;9.00;91.00;;;;;;4974752;28;19906;-77
2022/01/23 06:34:48;;;;;;;;;;;9.10;91.00;;;;;;4957637;28;19910;-77
2022/01/23 06:37:13;;;;;;;;;;;9.10;91.00;;;;;;4957626;28;19906;-77
2022/01/23 06:39:39;;;;;;;;;;;9.10;91.00;;;;;;4957550;28;19949;-78
2022/01/23 06:42:04;;;;;;;;;;;9.00;91.00;;;;;;4974540;28;20306;-78
2022/01/23 06:44:30;;;;;;;;;;;9.00;91.00;;;;;;4974526;28;19921;-77
2022/01/23 06:46:56;;;;;;;;;;;9.00;91.00;;;;;;4974705;28;19996;-78
2022/01/23 06:49:21;;;;;;;;;;;9.00;91.00;;;;;;4974749;28;19915;-77
2022/01/23 06:51:49;;;;;;;;;;;9.00;91.00;;;;;;4957087;28;20400;-77
2022/01/23 06:54:14;;;;;;;;;;;9.00;91.00;;;;;;4957320;28;19914;-78
2022/01/23 06:56:40;;;;;;;;;;;9.00;91.00;;;;;;4974689;28;19906;-78
2022/01/23 06:59:05;;;;;;;;;;;9.10;91.00;;;;;;4974720;28;19906;-78
2022/01/23 07:01:31;;;;;;;;;;;9.10;91.00;;;;;;4956641;28;19953;-77
2022/01/23 07:03:56;;;;;;;;;;;9.00;91.00;;;;;;4974640;28;19913;-77
2022/01/23 07:06:22;;;;;;;;;;;9.00;91.00;;;;;;4957305;28;20377;-77
2022/01/23 07:08:47;;;;;;;;;;;9.00;91.00;;;;;;4957621;28;20344;-79
2022/01/23 07:11:13;;;;;;;;;;;9.00;91.00;;;;;;4957797;28;19929;-78
2022/01/23 07:13:38;;;;;;;;;;;9.00;91.00;;;;;;4957283;28;19910;-78
2022/01/23 07:16:06;;;;;;;;;;;9.10;91.00;;;;;;4957158;28;20002;-78
2022/01/23 07:18:31;;;;;;;;;;;9.00;91.00;;;;;;4957579;28;20481;-78
2022/01/23 07:20:57;;;;;;;;;;;9.00;91.00;;;;;;4975515;28;19910;-77
2022/01/23 07:23:23;;;;;;;;;;;9.10;91.00;;;;;;4957307;28;19907;-78
2022/01/23 07:25:49;;;;;;;;;;;9.00;91.00;;;;;;4956857;28;19949;-77
2022/01/23 07:28:17;;;;;;;;;;;9.10;91.00;;;;;;4957456;28;19926;-77
2022/01/23 07:30:50;;;;;;;;;;;9.00;90.90;;;;;;4956699;28;19906;-76
2022/01/23 07:33:16;;;;;;;;;;;9.10;91.00;;;;;;4974056;28;19917;-76
2022/01/23 07:35:41;;;;;;;;;;;9.10;91.00;;;;;;4974032;28;19906;-76
2022/01/23 07:38:09;;;;;;;;;;;9.00;91.00;;;;;;4974157;28;20018;-76
2022/01/23 07:40:35;;;;;;;;;;;9.10;91.00;;;;;;4973970;28;19917;-76
2022/01/23 07:43:00;;;;;;;;;;;9.00;91.00;;;;;;4973821;28;20424;-76
2022/01/23 07:45:26;;;;;;;;;;;9.00;91.00;;;;;;4956832;28;20270;-77
2022/01/23 07:47:51;;;;;;;;;;;9.10;91.00;;;;;;4974000;28;19945;-77
2022/01/23 07:50:17;;;;;;;;;;;9.00;91.00;;;;;;4956631;28;20388;-76
2022/01/23 07:52:42;;;;;;;;;;;9.10;91.00;;;;;;4956439;28;20337;-77
2022/01/23 07:55:09;;;;;;;;;;;9.10;91.00;;;;;;4973877;28;19910;-77
2022/01/23 07:57:35;;;;;;;;;;;9.00;91.00;;;;;;4956741;28;19910;-76
2022/01/23 08:00:01;;;;;;;;;;;9.10;91.00;;;;;;4956729;28;19906;-76
2022/01/23 08:02:26;;;;;;;;;;;9.10;91.00;;;;;;4956563;28;19912;-76
2022/01/23 08:04:52;;;;;;;;;;;9.00;91.00;;;;;;4956505;28;20000;-77
2022/01/23 08:09:56;;;;;;;;;;;9.10;91.00;;;;;;4973835;28;20274;-77
2022/01/23 08:12:22;;;;;;;;;;;9.10;91.00;;;;;;4973652;28;19961;-76
2022/01/23 08:14:48;;;;;;;;;;;9.00;91.00;;;;;;4977394;28;19910;-76
2022/01/23 08:17:13;;;;;;;;;;;9.10;91.00;;;;;;4960224;28;19913;-77
2022/01/23 08:19:39;;;;;;;;;;;9.10;91.00;;;;;;4960045;28;20365;-77
2022/01/23 08:22:04;;;;;;;;;;;9.10;91.00;;;;;;4959861;28;19917;-77
2022/01/23 08:24:30;;;;;;;;;;;9.10;91.00;;;;;;4959949;28;19913;-76
2022/01/23 08:26:56;;;;;;;;;;;9.00;91.00;;;;;;4960053;28;19906;-77
2022/01/23 08:29:21;;;;;;;;;;;9.00;91.00;;;;;;4959909;28;19929;-77
2022/01/23 08:31:47;;;;;;;;;;;9.10;91.00;;;;;;4959750;28;19913;-77
2022/01/23 08:34:13;;;;;;;;;;;9.10;91.00;;;;;;4959769;28;20288;-77
2022/01/23 08:36:39;;;;;;;;;;;9.00;91.00;;;;;;4977209;28;19956;-77
2022/01/23 08:39:05;;;;;;;;;;;9.10;91.00;;;;;;4977232;28;20001;-76
2022/01/23 08:44:15;;;;;;;;;;;9.10;91.00;;;;;;4976929;28;19924;-77
2022/01/23 08:46:40;;;;;;;;;;;9.10;91.00;;;;;;4976996;28;19913;-77
2022/01/23 08:49:06;;;;;;;;;;;9.10;91.00;;;;;;4959909;28;19945;-77
2022/01/23 08:51:32;;;;;;;;;;;9.10;91.00;;;;;;4959586;28;19906;-77
2022/01/23 08:53:59;;;;;;;;;;;9.10;91.20;;;;;;4959485;28;19910;-78
2022/01/23 08:56:25;;;;;;;;;;;9.10;91.00;;;;;;4959627;28;19910;-76
2022/01/23 08:58:50;;;;;;;;;;;9.10;91.00;;;;;;4977105;28;19913;-77
2022/01/23 09:01:16;;;;;;;;;;;9.10;91.00;;;;;;4960096;28;20277;-78
2022/01/23 09:03:42;;;;;;;;;;;9.10;91.00;;;;;;4959698;28;20277;-76
2022/01/23 09:06:08;;;;;;;;;;;9.10;90.90;;;;;;4957589;28;20000;-78
2022/01/23 09:08:37;;;;;;;;;;;9.10;90.90;;;;;;4970414;28;19939;-78
2022/01/23 09:11:08;;;;;;;;;;;9.10;90.90;;;;;;4952657;29;20281;-79
2022/01/23 09:16:06;;;;;;;;;;;9.10;91.00;;;;;;4969970;28;20004;-78
2022/01/23 09:18:32;;;;;;;;;;;9.10;91.00;;;;;;4956718;28;19910;-77
2022/01/23 09:20:58;;;;;;;;;;;9.10;91.00;;;;;;4957256;28;19906;-79
2022/01/23 09:23:24;;;;;;;;;;;9.10;91.00;;;;;;4974359;28;19917;-76
2022/01/23 09:25:49;;;;;;;;;;;9.10;91.00;;;;;;4956469;28;19906;-77
2022/01/23 09:28:17;;;;;;;;;;;9.10;91.00;;;;;;4957024;28;19917;-77
2022/01/23 09:30:48;;;;;;;;;;;9.10;91.00;;;;;;4956630;28;19917;-79
2022/01/23 09:33:13;;;;;;;;;;;9.10;91.00;;;;;;4974229;28;19910;-78
2022/01/23 09:35:39;;;;;;;;;;;9.10;91.00;;;;;;4973735;28;19906;-77
2022/01/23 09:38:04;;;;;;;;;;;9.10;91.00;;;;;;4974064;28;20000;-77
2022/01/23 09:40:30;;;;;;;;;;;9.10;91.00;;;;;;4956046;28;19917;-75
2022/01/23 09:42:58;;;;;;;;;;;9.10;91.00;;;;;;4955832;28;20001;-77
2022/01/23 09:45:25;;;;;;;;;;;9.10;91.00;;;;;;4956333;28;20027;-76
2022/01/23 09:47:53;;;;;;;;;;;9.20;91.00;;;;;;4956513;28;20369;-76
2022/01/23 09:50:19;;;;;;;;;;;9.10;91.00;;;;;;4974549;28;19929;-78
2022/01/23 09:52:44;;;;;;;;;;;9.20;91.00;;;;;;4973185;28;20397;-79
2022/01/23 09:55:11;;;;;;;;;;;9.10;91.20;;;;;;4957514;28;19914;-78
2022/01/23 09:57:38;;;;;;;;;;;9.10;90.90;;;;;;4953175;28;19997;-77
2022/01/23 10:00:06;;;;;;;;;;;9.20;91.00;;;;;;4955055;28;20337;-78
2022/01/23 10:02:31;;;;;;;;;;;9.30;91.00;;;;;;4960538;28;19906;-79
2022/01/23 10:04:57;;;;;;;;;;;9.20;91.00;;;;;;4963124;28;19917;-78
2022/01/23 10:07:22;;;;;;;;;;;9.20;91.00;;;;;;4955916;28;20455;-77
2022/01/23 10:09:53;;;;;;;;;;;9.20;90.90;;;;;;4961385;28;19990;-80
2022/01/23 10:12:20;;;;;;;;;;;9.20;90.90;;;;;;4948384;28;20004;-78
2022/01/23 10:14:46;;;;;;;;;;;9.20;90.90;;;;;;4957204;28;19956;-78
2022/01/23 10:17:12;;;;;;;;;;;9.20;90.90;;;;;;4957292;28;19956;-78
2022/01/23 10:19:38;;;;;;;;;;;9.10;90.90;;;;;;4976755;28;19906;-79
2022/01/23 10:22:05;;;;;;;;;;;9.20;90.90;;;;;;4959137;28;19910;-80
2022/01/23 10:24:30;;;;;;;;;;;9.10;90.90;;;;;;4975389;28;19906;-78
2022/01/23 10:26:58;;;;;;;;;;;9.10;90.90;;;;;;4964862;28;19921;-80
2022/01/23 10:29:26;;;;;;;;;;;9.10;90.90;;;;;;4947762;28;20274;-79
2022/01/23 10:32:18;;;;;;;;;;;9.10;90.90;;;;;;4971489;28;19932;-80
2022/01/23 10:34:47;;;;;;;;;;;9.10;90.90;;;;;;4951694;28;19914;-75
2022/01/23 10:37:22;;;;;;;;;;;9.10;90.90;;;;;;4956646;28;19910;-80
2022/01/23 10:39:47;;;;;;;;;;;9.10;90.90;;;;;;4957131;28;19910;-80
2022/01/23 10:48:13;;;;;;;;;;;9.20;91.00;;;;;;4955126;29;19914;-79
2022/01/23 10:50:39;;;;;;;;;;;9.10;91.00;;;;;;4948869;28;19906;-79
2022/01/23 10:53:04;;;;;;;;;;;9.10;91.00;;;;;;4974695;28;19913;-80
2022/01/23 10:55:31;;;;;;;;;;;9.20;91.00;;;;;;4951042;29;20513;-78
2022/01/23 10:58:00;;;;;;;;;;;9.10;91.00;;;;;;4940067;28;19961;-78
2022/01/23 11:00:25;;;;;;;;;;;9.20;91.00;;;;;;4945918;29;19910;-78
2022/01/23 11:02:51;;;;;;;;;;;9.20;91.00;;;;;;4946538;28;19913;-77
2022/01/23 11:05:18;;;;;;;;;;;9.10;91.00;;;;;;4950948;29;20005;-79
2022/01/23 11:07:45;;;;;;;;;;;9.10;90.90;;;;;;4956017;28;19957;-80
2022/01/23 11:10:13;;;;;;;;;;;9.20;91.00;;;;;;4956369;28;19910;-82
2022/01/23 11:18:04;;;;;;;;;;;9.20;91.00;;;;;;4973991;28;19938;-77
2022/01/23 11:20:31;;;;;;;;;;;9.20;91.00;;;;;;4974274;28;20009;-82
2022/01/23 11:23:16;;;;;;;;;;;9.20;90.90;;;;;;4956462;28;19906;-80
2022/01/23 11:25:43;;;;;;;;;;;9.20;90.90;;;;;;4956541;28;19921;-78
2022/01/23 11:28:08;;;;;;;;;;;9.20;90.90;;;;;;4974266;28;19913;-81
2022/01/23 11:30:40;;;;;;;;;;;9.20;90.90;;;;;;4955778;28;19914;-81
2022/01/23 11:33:07;;;;;;;;;;;9.20;90.90;;;;;;4973569;28;19910;-79
2022/01/23 11:35:32;;;;;;;;;;;9.20;90.90;;;;;;4973310;28;19910;-80
2022/01/23 11:37:58;;;;;;;;;;;9.20;90.80;;;;;;4956032;28;19996;-79
2022/01/23 11:54:49;;;;;;;;;;;9.20;90.80;;;;;;4978316;28;19932;-80
2022/01/23 11:57:36;;;;;;;;;;;9.30;90.80;;;;;;4960520;28;20001;-82
2022/01/23 12:00:07;;;;;;;;;;;9.30;90.90;;;;;;4949428;28;19938;-81
2022/01/23 12:02:37;;;;;;;;;;;9.30;90.80;;;;;;4950108;29;19914;-79
2022/01/23 12:05:12;;;;;;;;;;;9.30;90.80;;;;;;4948567;28;19973;-78
2022/01/23 12:07:39;;;;;;;;;;;9.30;90.80;;;;;;4976243;28;19917;-78
2022/01/23 12:10:09;;;;;;;;;;;9.30;90.80;;;;;;4976594;28;19964;-73
2022/01/23 12:12:40;;;;;;;;;;;9.30;90.80;;;;;;4976099;28;19910;-76
2022/01/23 12:18:12;;;;;;;;;;;9.30;90.80;;;;;;4976334;28;19960;-78
2022/01/23 12:20:38;;;;;;;;;;;9.30;90.80;;;;;;4957662;28;20325;-78
2022/01/23 12:23:04;;;;;;;;;;;9.30;90.80;;;;;;4976342;28;19941;-78
2022/01/23 12:25:38;;;;;;;;;;;9.30;90.80;;;;;;4959252;28;19984;-77
2022/01/23 12:28:09;;;;;;;;;;;9.30;90.90;;;;;;4975351;28;19913;-78
2022/01/23 12:30:34;;;;;;;;;;;9.30;90.80;;;;;;4974930;28;19988;-78
2022/01/23 12:33:09;;;;;;;;;;;9.30;90.90;;;;;;4957055;28;20000;-77
2022/01/23 12:35:39;;;;;;;;;;;9.30;90.70;;;;;;4957721;28;19961;-77
2022/01/23 12:38:05;;;;;;;;;;;9.30;90.70;;;;;;4957355;28;19910;-78
2022/01/23 12:40:32;;;;;;;;;;;9.30;90.70;;;;;;4958314;28;20328;-77
2022/01/23 12:43:05;;;;;;;;;;;9.30;90.70;;;;;;4955115;28;19910;-76
2022/01/23 12:45:47;;;;;;;;;;;9.30;90.70;;;;;;4960168;28;19910;-78
2022/01/23 12:48:22;;;;;;;;;;;9.30;90.70;;;;;;4955256;28;19906;-79
2022/01/23 12:50:47;;;;;;;;;;;9.30;90.70;;;;;;4957264;28;19906;-77
2022/01/23 12:53:13;;;;;;;;;;;9.30;90.70;;;;;;4946777;28;19906;-78
2022/01/23 12:55:58;;;;;;;;;;;9.30;90.80;;;;;;4958156;28;19910;-76
2022/01/23 12:58:24;;;;;;;;;;;9.20;90.70;;;;;;4957886;28;19906;-77
2022/01/23 13:00:50;;;;;;;;;;;9.30;90.80;;;;;;4938614;28;20009;-76
2022/01/23 13:03:22;;;;;;;;;;;9.30;91.00;;;;;;4937915;29;20017;-77
2022/01/23 13:05:48;;;;;;;;;;;9.30;91.50;;;;;;4938170;29;19914;-77
2022/01/23 13:08:21;;;;;;;;;;;9.30;91.00;;;;;;4942472;28;20005;-76
2022/01/23 13:13:37;;;;;;;;;;;9.30;90.90;;;;;;4954552;28;19918;-76
2022/01/23 13:32:07;;;;;;;;;;;9.40;91.20;;;;;;4955391;29;19910;-79
2022/01/23 13:34:36;;;;;;;;;;;9.50;91.20;;;;;;4938064;29;19910;-81
2022/01/23 13:37:03;;;;;;;;;;;9.50;91.20;;;;;;4954694;28;20016;-77
2022/01/23 13:39:32;;;;;;;;;;;9.50;91.30;;;;;;4937518;29;19962;-78
2022/01/23 13:42:03;;;;;;;;;;;9.50;91.50;;;;;;4937247;29;19906;-79
2022/01/23 13:53:07;;;;;;;;;;;9.60;92.20;;;;;;4954796;28;20305;-78
2022/01/23 13:58:51;;;;;;;;;;;9.60;92.20;;;;;;4955300;29;19964;-81
2022/01/23 14:01:32;;;;;;;;;;;9.70;92.20;;;;;;4951800;28;19910;-80
2022/01/23 14:03:58;;;;;;;;;;;9.70;92.40;;;;;;4934591;29;19910;-79
2022/01/23 14:06:25;;;;;;;;;;;9.70;92.60;;;;;;4951745;28;20322;-76
2022/01/23 14:09:00;;;;;;;;;;;9.80;92.60;;;;;;4951319;28;19989;-78
2022/01/23 14:11:26;;;;;;;;;;;9.80;92.60;;;;;;4933779;29;19906;-78
2022/01/23 14:13:52;;;;;;;;;;;9.80;92.80;;;;;;4934079;29;19914;-77
2022/01/23 14:16:24;;;;;;;;;;;9.90;93.00;;;;;;4951821;29;19961;-77
2022/01/23 14:18:50;;;;;;;;;;;9.90;92.90;;;;;;4935012;29;20017;-78
2022/01/23 14:21:15;;;;;;;;;;;9.90;92.90;;;;;;4934537;29;20009;-79
2022/01/23 14:23:41;;;;;;;;;;;9.90;92.90;;;;;;4947810;28;20009;-78
2022/01/23 14:26:08;;;;;;;;;;;9.90;93.00;;;;;;4948859;29;19914;-76
2022/01/23 14:28:40;;;;;;;;;;;10.00;93.10;;;;;;4934729;29;20416;-78
2022/01/23 14:31:15;;;;;;;;;;;10.00;92.60;;;;;;4951653;29;19921;-79
2022/01/23 14:33:41;;;;;;;;;;;10.00;92.40;;;;;;4934343;29;19918;-82
2022/01/23 14:36:19;;;;;;;;;;;10.00;92.10;;;;;;4934998;29;19913;-79
2022/01/23 14:38:54;;;;;;;;;;;10.00;92.00;;;;;;4952491;29;19906;-78
2022/01/23 14:41:20;;;;;;;;;;;10.00;91.80;;;;;;4934337;29;19910;-77
2022/01/23 14:43:45;;;;;;;;;;;9.90;91.90;;;;;;4951924;29;20297;-79
2022/01/23 14:46:11;;;;;;;;;;;9.90;91.60;;;;;;4951786;29;19965;-77
2022/01/23 14:48:44;;;;;;;;;;;9.90;91.70;;;;;;4951866;29;20370;-79
2022/01/23 14:51:10;;;;;;;;;;;9.90;91.50;;;;;;4934628;29;20037;-81
2022/01/23 14:53:37;;;;;;;;;;;9.90;91.60;;;;;;4951828;29;19969;-77
2022/01/23 14:56:04;;;;;;;;;;;9.80;91.10;;;;;;4934857;29;19933;-79
2022/01/23 14:58:30;;;;;;;;;;;9.90;91.30;;;;;;4935340;29;19914;-80
2022/01/23 15:00:56;;;;;;;;;;;9.80;91.20;;;;;;4952279;29;19969;-80
2022/01/23 15:03:25;;;;;;;;;;;9.80;91.20;;;;;;4934657;29;20377;-79
2022/01/23 15:05:51;;;;;;;;;;;9.90;91.30;;;;;;4934662;29;19993;-77
2022/01/23 15:08:21;;;;;;;;;;;9.80;91.20;;;;;;4952030;29;20009;-78
2022/01/23 15:10:48;;;;;;;;;;;9.80;90.90;;;;;;4951116;29;19907;-79
2022/01/23 15:13:14;;;;;;;;;;;9.80;90.90;;;;;;4951256;29;19962;-78
2022/01/23 15:15:40;;;;;;;;;;;9.80;90.90;;;;;;4934904;29;19938;-81
2022/01/23 15:18:06;;;;;;;;;;;9.80;91.10;;;;;;4935883;28;19906;-79
2022/01/23 15:20:33;;;;;;;;;;;9.80;91.00;;;;;;4953116;28;19906;-78
2022/01/23 15:23:06;;;;;;;;;;;9.60;90.90;;;;;;4954142;28;20308;-78
2022/01/23 15:25:32;;;;;;;;;;;9.80;90.90;;;;;;4956837;28;19910;-79
2022/01/23 15:27:58;;;;;;;;;;;9.80;90.90;;;;;;4955151;28;20262;-79
2022/01/23 15:30:24;;;;;;;;;;;9.80;90.90;;;;;;4972294;28;19916;-79
2022/01/23 15:32:51;;;;;;;;;;;9.70;90.80;;;;;;4954611;28;19910;-79
2022/01/23 15:35:17;;;;;;;;;;;9.70;90.70;;;;;;4954511;28;19917;-78
2022/01/23 15:37:43;;;;;;;;;;;9.70;90.60;;;;;;4953415;28;19917;-77
2022/01/23 15:40:12;;;;;;;;;;;9.80;90.90;;;;;;4953345;28;19907;-78
2022/01/23 15:42:38;;;;;;;;;;;9.70;90.90;;;;;;4953134;28;20370;-79
2022/01/23 15:45:03;;;;;;;;;;;9.70;91.00;;;;;;4953325;28;19924;-78
2022/01/23 15:47:29;;;;;;;;;;;9.70;91.00;;;;;;4950084;28;19914;-76
2022/01/23 15:49:55;;;;;;;;;;;9.80;91.00;;;;;;4970306;28;19921;-76
2022/01/23 15:52:20;;;;;;;;;;;9.80;91.10;;;;;;4953147;28;19914;-80
2022/01/23 15:54:46;;;;;;;;;;;9.80;91.10;;;;;;4952342;28;19998;-78
2022/01/23 15:57:11;;;;;;;;;;;9.80;91.10;;;;;;4952656;28;19957;-75
2022/01/23 15:59:37;;;;;;;;;;;9.80;91.20;;;;;;4969712;28;20304;-78
2022/01/23 16:02:07;;;;;;;;;;;9.80;91.20;;;;;;4954121;28;20004;-77
2022/01/23 16:04:35;;;;;;;;;;;9.80;91.30;;;;;;4954366;28;19906;-77
2022/01/23 16:07:02;;;;;;;;;;;9.80;91.40;;;;;;4955592;28;20385;-75
2022/01/23 16:09:28;;;;;;;;;;;9.80;91.40;;;;;;4955210;28;19913;-76
2022/01/23 16:11:54;;;;;;;;;;;9.90;91.50;;;;;;4956480;28;19957;-75
2022/01/23 16:14:20;;;;;;;;;;;9.80;91.60;;;;;;4971940;28;19910;-76
2022/01/23 16:16:46;;;;;;;;;;;9.90;91.60;;;;;;4954184;28;19910;-74
2022/01/23 16:19:11;;;;;;;;;;;9.80;91.70;;;;;;4953881;28;19913;-76
2022/01/23 16:21:37;;;;;;;;;;;9.90;92.40;;;;;;4953850;28;20308;-75
2022/01/23 16:24:03;;;;;;;;;;;10.00;92.90;;;;;;4970311;28;19906;-76
2022/01/23 16:26:28;;;;;;;;;;;10.00;92.90;;;;;;4953855;28;20317;-79
2022/01/23 16:28:54;;;;;;;;;;;10.00;92.70;;;;;;4953889;28;20074;-76
2022/01/23 16:31:19;;;;;;;;;;;10.10;92.90;;;;;;4971803;28;19907;-77
2022/01/23 16:33:45;;;;;;;;;;;10.20;92.90;;;;;;4955230;28;19918;-76
2022/01/23 16:36:10;;;;;;;;;;;10.30;92.90;;;;;;4976435;28;19916;-77
2022/01/23 16:38:36;;;;;;;;;;;10.40;92.40;;;;;;4958560;28;19910;-77
2022/01/23 16:41:03;;;;;;;;;;;10.60;92.50;;;;;;4955997;28;19992;-76
2022/01/23 16:43:29;;;;;;;;;;;10.60;91.80;;;;;;4958030;28;20346;-80
2022/01/23 16:45:55;;;;;;;;;;;10.60;90.80;;;;;;4957505;28;19921;-78
2022/01/23 16:48:22;;;;;;;;;;;10.50;91.00;;;;;;4956319;28;19917;-78
2022/01/23 16:50:47;;;;;;;;;;;10.40;90.50;;;;;;4956193;28;19964;-77
2022/01/23 16:53:13;;;;;;;;;;;10.40;90.40;;;;;;4973157;28;19949;-77
2022/01/23 16:55:39;;;;;;;;;;;10.30;90.30;;;;;;4956011;28;20332;-78
2022/01/23 16:58:04;;;;;;;;;;;10.20;90.70;;;;;;4956751;28;19957;-77
2022/01/23 17:00:30;;;;;;;;;;;10.20;90.70;;;;;;4956087;28;19933;-79
2022/01/23 17:02:56;;;;;;;;;;;10.10;90.60;;;;;;4973335;28;19910;-79
2022/01/23 17:05:21;;;;;;;;;;;10.10;90.80;;;;;;4956069;28;19909;-79
2022/01/23 17:07:47;;;;;;;;;;;10.10;91.00;;;;;;4957999;28;19906;-77
2022/01/23 17:10:13;;;;;;;;;;;10.00;91.10;;;;;;4957451;28;19957;-79
2022/01/23 17:12:38;;;;;;;;;;;10.00;91.40;;;;;;4974484;28;20391;-78
2022/01/23 17:15:04;;;;;;;;;;;10.00;91.80;;;;;;4953919;28;19961;-74
2022/01/23 17:17:30;;;;;;;;;;;10.00;92.00;;;;;;4949258;28;19913;-78
2022/01/23 17:19:55;;;;;;;;;;;10.10;91.80;;;;;;4943288;29;19911;-76
2022/01/23 17:22:21;;;;;;;;;;;10.10;91.80;;;;;;4943506;29;19906;-77
2022/01/23 17:24:46;;;;;;;;;;;10.20;91.90;;;;;;4965568;28;20399;-75
2022/01/23 17:27:12;;;;;;;;;;;10.20;91.80;;;;;;4963898;28;20544;-76
2022/01/23 17:29:37;;;;;;;;;;;10.20;91.60;;;;;;4961673;28;19964;-77
2022/01/23 17:32:08;;;;;;;;;;;10.20;91.40;;;;;;4941346;28;20324;-77
2022/01/23 17:34:34;;;;;;;;;;;10.10;91.30;;;;;;4954855;28;19918;-77
2022/01/23 17:37:00;;;;;;;;;;;10.10;91.10;;;;;;4955201;28;19917;-77
2022/01/23 17:39:25;;;;;;;;;;;10.10;91.20;;;;;;4954921;28;19906;-76
2022/01/23 17:41:51;;;;;;;;;;;10.10;91.10;;;;;;4953674;28;19910;-75
2022/01/23 17:44:16;;;;;;;;;;;10.00;91.00;;;;;;4948296;29;19985;-76
2022/01/23 17:46:44;;;;;;;;;;;10.00;90.90;;;;;;4962695;28;19907;-77